sensor_id;sensor_type;location;lat;lon;timestamp;pressure;altitude;pressure_sealevel;temperature;humidity
7058;BME280;3570;43.080;25.628;2023-11-21T00:02:01;-19620.78;;;5.74;100.00
7058;BME280;3570;43.080;25.628;2023-11-21T00:04:45;-19617.72;;;5.63;100.00
7058;BME280;3570;43.080;25.628;2023-11-21T00:07:29;-19613.75;;;5.50;100.00
7058;BME280;3570;43.080;25.628;2023-11-21T00:10:13;-19610.09;;;5.37;100.00
7058;BME280;3570;43.080;25.628;2023-11-21T00:12:58;-19597.78;;;4.95;100.00
7058;BME280;3570;43.080;25.628;2023-11-21T00:15:42;-19599.97;;;5.03;100.00
7058;BME280;3570;43.080;25.628;2023-11-21T00:18:26;-19595.00;;;4.86;100.00
7058;BME280;3570;43.080;25.628;2023-11-21T00:21:10;-19593.97;;;4.82;100.00
7058;BME280;3570;43.080;25.628;2023-11-21T00:23:56;-19606.13;;;5.24;100.00
7058;BME280;3570;43.080;25.628;2023-11-21T00:26:40;-19603.50;;;5.15;100.00
7058;BME280;3570;43.080;25.628;2023-11-21T00:29:24;-19611.56;;;5.42;100.00
7058;BME280;3570;43.080;25.628;2023-11-21T00:32:08;-19610.97;;;5.40;100.00
7058;BME280;3570;43.080;25.628;2023-11-21T00:34:53;-19611.69;;;5.43;100.00
7058;BME280;3570;43.080;25.628;2023-11-21T00:37:38;-19609.06;;;5.34;100.00
7058;BME280;3570;43.080;25.628;2023-11-21T00:40:22;-19607.88;;;5.30;100.00
7058;BME280;3570;43.080;25.628;2023-11-21T00:43:06;-19607.16;;;5.27;100.00
7058;BME280;3570;43.080;25.628;2023-11-21T00:45:50;-19599.81;;;5.02;100.00
7058;BME280;3570;43.080;25.628;2023-11-21T00:48:35;-19602.59;;;5.12;100.00
7058;BME280;3570;43.080;25.628;2023-11-21T00:51:19;-19604.66;;;5.19;100.00
7058;BME280;3570;43.080;25.628;2023-11-21T00:54:03;-19604.53;;;5.18;100.00
7058;BME280;3570;43.080;25.628;2023-11-21T00:56:47;-19596.31;;;4.90;100.00
7058;BME280;3570;43.080;25.628;2023-11-21T00:59:32;-19598.06;;;4.96;100.00
7058;BME280;3570;43.080;25.628;2023-11-21T01:02:16;-19588.81;;;4.64;100.00
7058;BME280;3570;43.080;25.628;2023-11-21T01:04:59;-19581.06;;;4.38;100.00
7058;BME280;3570;43.080;25.628;2023-11-21T01:07:43;-19584.44;;;4.49;100.00
7058;BME280;3570;43.080;25.628;2023-11-21T01:10:27;-19581.34;;;4.39;100.00
7058;BME280;3570;43.080;25.628;2023-11-21T01:13:11;-19573.28;;;4.11;100.00
7058;BME280;3570;43.080;25.628;2023-11-21T01:15:56;-19570.06;;;4.00;100.00
7058;BME280;3570;43.080;25.628;2023-11-21T01:18:40;-19573.88;;;4.13;100.00
7058;BME280;3570;43.080;25.628;2023-11-21T01:21:24;-19570.50;;;4.02;100.00
7058;BME280;3570;43.080;25.628;2023-11-21T01:24:09;-19570.06;;;4.00;100.00
7058;BME280;3570;43.080;25.628;2023-11-21T01:26:52;-19571.81;;;4.06;100.00
7058;BME280;3570;43.080;25.628;2023-11-21T01:29:36;-19575.34;;;4.18;100.00
7058;BME280;3570;43.080;25.628;2023-11-21T01:32:20;-19578.84;;;4.30;100.00
7058;BME280;3570;43.080;25.628;2023-11-21T01:35:05;-19584.00;;;4.48;100.00
7058;BME280;3570;43.080;25.628;2023-11-21T01:37:50;-19582.09;;;4.41;100.00
7058;BME280;3570;43.080;25.628;2023-11-21T01:40:34;-19586.19;;;4.55;100.00
7058;BME280;3570;43.080;25.628;2023-11-21T01:43:19;-19583.25;;;4.45;100.00
7058;BME280;3570;43.080;25.628;2023-11-21T01:46:03;-19578.56;;;4.29;100.00
7058;BME280;3570;43.080;25.628;2023-11-21T01:48:49;-19577.81;;;4.27;100.00
7058;BME280;3570;43.080;25.628;2023-11-21T01:51:34;-19575.91;;;4.20;100.00
7058;BME280;3570;43.080;25.628;2023-11-21T01:54:18;-19574.75;;;4.16;100.00
7058;BME280;3570;43.080;25.628;2023-11-21T01:57:05;-19573.56;;;4.12;100.00
